Time;durP1;ratioP1;P1;durP2;ratioP2;P2;SDS_P1;SDS_P2;PMS_P1;PMS_P2;Temp;Humidity;BMP_temperature;BMP_pressure;BME280_temperature;BME280_humidity;BME280_pressure;Samples;Min_cycle;Max_cycle;Signal;HPM_P1;HPM_P2
2023/10/24 00:01:14;;;;;;;19.10;6.00;;;;;;;15.31;72.48;95247.00;5105108;28;20205;-64
2023/10/24 00:03:41;;;;;;;8.45;5.07;;;;;;;15.30;73.19;95253.03;5104861;28;20253;-64
2023/10/24 00:06:09;;;;;;;16.60;5.75;;;;;;;15.13;74.17;95250.44;5102925;28;20210;-65
2023/10/24 00:08:35;;;;;;;11.93;4.57;;;;;;;15.02;74.92;95248.41;5103877;28;20314;-65
2023/10/24 00:11:02;;;;;;;11.57;4.88;;;;;;;15.12;73.98;95239.38;5103812;28;20262;-64
2023/10/24 00:13:31;;;;;;;18.00;5.35;;;;;;;15.17;74.35;95245.09;5102741;28;20691;-65
2023/10/24 00:15:57;;;;;;;16.52;5.28;;;;;;;15.10;74.99;95238.63;5104723;28;20201;-65
2023/10/24 00:18:25;;;;;;;11.18;5.10;;;;;;;15.14;73.40;95237.56;5100497;28;20309;-66
2023/10/24 00:20:52;;;;;;;20.42;6.18;;;;;;;14.74;75.38;95236.09;5099895;28;20678;-67
2023/10/24 00:23:18;;;;;;;24.60;6.80;;;;;;;14.53;76.39;95240.47;5103176;28;20217;-65
2023/10/24 00:25:45;;;;;;;19.55;5.13;;;;;;;14.44;77.61;95245.19;5103479;28;20228;-65
2023/10/24 00:28:12;;;;;;;21.90;5.97;;;;;;;14.48;77.35;95236.47;5102984;28;20269;-66
2023/10/24 00:30:40;;;;;;;14.02;5.00;;;;;;;14.55;77.19;95235.31;5103838;28;20201;-63
2023/10/24 00:33:07;;;;;;;18.27;6.30;;;;;;;14.52;77.05;95236.28;5102766;28;20232;-64
2023/10/24 00:35:34;;;;;;;15.13;5.55;;;;;;;14.34;76.57;95236.25;5099743;28;20201;-65
2023/10/24 00:38:00;;;;;;;10.25;5.10;;;;;;;14.32;77.32;95240.59;5102596;28;20607;-63
2023/10/24 00:40:27;;;;;;;17.67;4.93;;;;;;;14.19;78.13;95243.69;5102706;28;20257;-64
2023/10/24 00:42:54;;;;;;;16.33;5.53;;;;;;;14.11;77.98;95237.25;5100796;28;20308;-65
2023/10/24 00:45:20;;;;;;;22.38;5.97;;;;;;;14.04;78.73;95236.72;5102236;28;20225;-65
2023/10/24 00:47:49;;;;;;;13.43;5.50;;;;;;;14.06;78.54;95232.38;5101263;28;20654;-64
2023/10/24 00:50:16;;;;;;;15.80;5.85;;;;;;;14.20;78.25;95234.31;5100005;28;20679;-65
2023/10/24 00:52:45;;;;;;;13.38;5.20;;;;;;;14.17;78.58;95239.56;5102049;28;20258;-64
2023/10/24 00:55:14;;;;;;;13.25;5.97;;;;;;;14.32;76.71;95235.50;5102907;28;20197;-64
2023/10/24 00:57:41;;;;;;;14.23;5.07;;;;;;;14.38;76.34;95237.75;5103918;28;20196;-65
2023/10/24 01:00:09;;;;;;;17.10;5.80;;;;;;;14.26;76.65;95236.59;5103144;28;20669;-64
2023/10/24 01:02:36;;;;;;;19.27;6.88;;;;;;;14.10;78.51;95230.53;5101581;28;21789;-64
2023/10/24 01:05:06;;;;;;;16.38;6.07;;;;;;;14.20;77.82;95244.53;5102678;28;20671;-64
2023/10/24 01:07:33;;;;;;;12.52;5.95;;;;;;;13.95;78.40;95232.00;5103901;28;20209;-64
2023/10/24 01:10:00;;;;;;;14.75;4.82;;;;;;;14.01;77.87;95230.91;5104594;28;20201;-65
2023/10/24 01:12:27;;;;;;;20.20;5.38;;;;;;;13.99;78.43;95238.66;5103649;28;20193;-65
2023/10/24 01:14:54;;;;;;;21.15;5.95;;;;;;;13.93;78.28;95236.34;5098708;28;20281;-65
2023/10/24 01:17:20;;;;;;;14.38;5.28;;;;;;;14.10;77.25;95239.03;5103576;28;20197;-66
2023/10/24 01:19:47;;;;;;;14.40;5.65;;;;;;;13.89;78.31;95240.75;5103050;28;20196;-66
2023/10/24 01:22:15;;;;;;;14.40;4.97;;;;;;;13.89;78.13;95239.94;5102028;28;20520;-65
2023/10/24 01:24:42;;;;;;;17.38;5.32;;;;;;;13.84;78.83;95236.78;5103641;28;20256;-64
2023/10/24 01:27:09;;;;;;;16.60;4.72;;;;;;;13.92;78.16;95230.41;5102421;28;20201;-64
2023/10/24 01:29:35;;;;;;;16.67;6.32;;;;;;;13.91;77.60;95233.03;5103485;28;20281;-66
2023/10/24 01:32:02;;;;;;;13.65;5.13;;;;;;;13.79;78.24;95224.19;5103729;28;20220;-64
2023/10/24 01:34:29;;;;;;;18.70;5.75;;;;;;;13.84;78.63;95232.50;5103067;28;20687;-65
2023/10/24 01:36:56;;;;;;;17.10;5.30;;;;;;;13.72;78.85;95227.91;5107580;28;20627;-64
2023/10/24 01:39:24;;;;;;;22.13;5.90;;;;;;;13.63;79.39;95230.84;5108029;28;20213;-65
2023/10/24 01:41:51;;;;;;;16.95;5.18;;;;;;;13.49;79.61;95231.44;5107127;28;20193;-65
2023/10/24 01:44:17;;;;;;;14.93;5.00;;;;;;;13.54;79.86;95228.69;5106535;28;20278;-65
2023/10/24 01:46:44;;;;;;;16.75;5.75;;;;;;;13.54;79.12;95219.31;5108079;28;20293;-65
2023/10/24 01:49:11;;;;;;;20.55;5.75;;;;;;;13.75;78.64;95221.84;5106741;28;20197;-65
2023/10/24 01:51:38;;;;;;;14.68;5.22;;;;;;;13.80;77.95;95225.03;5105522;28;20236;-63
2023/10/24 01:54:05;;;;;;;11.18;4.85;;;;;;;13.87;78.10;95227.22;5106839;28;20219;-63
2023/10/24 01:56:33;;;;;;;10.85;5.13;;;;;;;13.81;78.63;95227.50;5107821;28;20710;-62
2023/10/24 01:59:00;;;;;;;12.82;5.03;;;;;;;13.73;79.16;95221.91;5106791;28;20261;-63
2023/10/24 02:01:26;;;;;;;12.90;5.53;;;;;;;13.81;77.78;95224.13;5106906;28;20231;-62
2023/10/24 02:03:54;;;;;;;15.55;5.30;;;;;;;13.61;79.01;95230.91;5107055;28;20228;-63
2023/10/24 02:06:21;;;;;;;20.70;6.60;;;;;;;13.42;79.76;95227.47;5106924;28;20207;-63
2023/10/24 02:08:47;;;;;;;22.25;5.15;;;;;;;13.51;79.43;95229.66;5107997;28;20224;-62
2023/10/24 02:11:14;;;;;;;10.95;5.25;;;;;;;13.66;78.68;95222.22;5107040;28;20205;-62
2023/10/24 02:13:43;;;;;;;22.08;5.97;;;;;;;13.51;79.15;95222.00;5106373;28;20201;-62
2023/10/24 02:16:09;;;;;;;9.90;4.57;;;;;;;13.43;79.36;95221.47;5105861;28;20205;-62
2023/10/24 02:18:36;;;;;;;13.50;4.93;;;;;;;13.36;79.80;95222.66;5107548;28;20253;-62
2023/10/24 02:21:07;;;;;;;15.98;5.25;;;;;;;13.31;80.97;95224.56;5105749;28;20201;-64
2023/10/24 02:23:34;;;;;;;16.90;5.10;;;;;;;13.30;80.25;95222.91;5104804;28;20223;-61
2023/10/24 02:26:00;;;;;;;14.38;7.63;;;;;;;13.23;80.19;95221.47;5106764;28;20284;-62
2023/10/24 02:28:27;;;;;;;15.65;4.60;;;;;;;13.23;80.40;95240.19;5107388;28;20197;-62
2023/10/24 02:30:55;;;;;;;13.38;4.57;;;;;;;13.26;80.84;95223.91;5105716;28;20285;-63
2023/10/24 02:33:22;;;;;;;8.00;4.22;;;;;;;13.46;79.82;95226.47;5107163;27;20236;-62
2023/10/24 02:35:48;;;;;;;13.00;4.80;;;;;;;13.50;78.75;95220.34;5105425;28;20277;-62
2023/10/24 02:38:16;;;;;;;13.05;5.13;;;;;;;13.33;79.41;95220.22;5107156;28;20248;-62
2023/10/24 02:40:52;;;;;;;17.83;4.75;;;;;;;13.34;79.28;95227.00;5105319;28;20280;-63
2023/10/24 02:43:18;;;;;;;16.67;5.55;;;;;;;13.16;80.19;95233.66;5105676;28;20257;-63
2023/10/24 02:45:46;;;;;;;9.60;4.50;;;;;;;13.08;80.67;95239.94;5102099;28;20248;-63
2023/10/24 02:48:14;;;;;;;14.43;5.00;;;;;;;12.99;80.98;95241.16;5104353;28;20197;-62
2023/10/24 02:50:42;;;;;;;15.70;5.70;;;;;;;13.09;80.87;95241.63;5104041;27;20262;-63
2023/10/24 02:53:09;;;;;;;18.30;5.15;;;;;;;13.04;80.71;95244.34;5104250;28;20240;-62
2023/10/24 02:55:36;;;;;;;11.82;4.55;;;;;;;13.04;80.61;95238.41;5105155;28;20193;-63
2023/10/24 02:58:02;;;;;;;13.00;5.28;;;;;;;12.93;81.01;95251.59;5105136;28;20217;-65
2023/10/24 03:00:29;;;;;;;7.90;4.53;;;;;;;12.85;81.20;95249.34;5102916;28;20209;-63
2023/10/24 03:02:56;;;;;;;15.50;4.75;;;;;;;12.87;81.40;95244.16;5104633;28;20216;-64
2023/10/24 03:05:24;;;;;;;13.45;4.65;;;;;;;13.03;80.70;95244.41;5106926;28;20675;-63
2023/10/24 03:07:50;;;;;;;15.00;5.35;;;;;;;13.11;80.01;95252.59;5107185;28;20705;-64
2023/10/24 03:10:17;;;;;;;13.85;4.57;;;;;;;12.94;80.50;95256.63;5106200;28;20246;-67
2023/10/24 03:12:44;;;;;;;24.38;5.05;;;;;;;12.97;80.73;95262.50;5105376;28;20236;-62
2023/10/24 03:15:11;;;;;;;11.02;4.35;;;;;;;13.08;80.52;95255.25;5105319;28;20197;-62
2023/10/24 03:17:38;;;;;;;15.00;5.63;;;;;;;13.11;80.17;95260.25;5106174;28;20240;-64
2023/10/24 03:20:05;;;;;;;16.38;5.28;;;;;;;13.18;79.88;95261.66;5105303;28;20197;-62
2023/10/24 03:22:33;;;;;;;18.42;5.78;;;;;;;13.14;79.76;95265.19;5106389;28;20706;-64
2023/10/24 03:25:00;;;;;;;10.07;5.35;;;;;;;12.99;80.72;95255.63;5105378;28;20216;-62
2023/10/24 03:27:27;;;;;;;9.45;4.85;;;;;;;13.15;79.65;95266.84;5105704;28;20201;-63
2023/10/24 03:29:53;;;;;;;12.38;5.13;;;;;;;13.24;79.43;95269.09;5104077;27;20209;-62
2023/10/24 03:32:20;;;;;;;16.67;5.15;;;;;;;13.22;79.77;95279.34;5103480;28;20764;-63
2023/10/24 03:34:47;;;;;;;8.40;4.82;;;;;;;13.23;79.66;95272.53;5106122;28;20236;-63
2023/10/24 03:37:14;;;;;;;16.55;5.55;;;;;;;13.12;79.96;95278.00;5103075;28;20616;-63
2023/10/24 03:39:42;;;;;;;11.20;4.25;;;;;;;13.04;80.51;95280.06;5104746;28;20686;-63
2023/10/24 03:42:13;;;;;;;17.88;5.55;;;;;;;12.82;81.07;95282.63;5105590;28;20205;-62
2023/10/24 03:44:40;;;;;;;17.52;6.03;;;;;;;13.02;80.32;95275.91;5104329;28;20230;-63
2023/10/24 03:47:06;;;;;;;14.60;4.32;;;;;;;13.21;79.62;95279.41;5104734;28;20650;-63
2023/10/24 03:49:33;;;;;;;16.83;4.97;;;;;;;13.14;79.73;95283.88;5105296;28;20221;-63
2023/10/24 03:52:00;;;;;;;47.38;23.90;;;;;;;13.26;79.90;95285.16;5103101;28;20237;-62
2023/10/24 03:54:27;;;;;;;19.58;8.38;;;;;;;13.11;80.34;95283.22;5105353;28;20313;-62
2023/10/24 03:56:55;;;;;;;34.78;13.27;;;;;;;13.08;80.57;95280.78;5104094;28;20208;-62
2023/10/24 03:59:22;;;;;;;27.08;8.68;;;;;;;13.06;80.33;95287.66;5104842;28;20201;-63
2023/10/24 04:01:49;;;;;;;16.23;6.72;;;;;;;13.08;79.75;95291.81;5104742;28;20209;-64
2023/10/24 04:04:15;;;;;;;19.10;5.88;;;;;;;13.01;79.97;95294.66;5105331;28;20289;-63
2023/10/24 04:06:42;;;;;;;15.57;6.18;;;;;;;13.02;79.26;95283.56;5104493;28;20193;-63
2023/10/24 04:09:09;;;;;;;11.20;5.55;;;;;;;13.07;79.23;95286.78;5103386;28;20261;-62
2023/10/24 04:11:35;;;;;;;20.13;5.88;;;;;;;13.27;78.37;95281.72;5105270;28;20197;-62
2023/10/24 04:14:03;;;;;;;10.55;5.72;;;;;;;13.32;78.18;95286.66;5105433;28;20626;-64
2023/10/24 04:16:32;;;;;;;12.77;4.70;;;;;;;13.34;78.19;95283.16;5104141;28;20205;-64
2023/10/24 04:18:59;;;;;;;19.10;6.20;;;;;;;13.21;79.12;95276.84;5105476;28;20201;-63
2023/10/24 04:21:25;;;;;;;15.80;5.35;;;;;;;13.30;78.64;95281.59;5102851;28;20355;-63
2023/10/24 04:23:52;;;;;;;12.73;5.05;;;;;;;13.20;79.10;95290.50;5102183;28;20282;-63
2023/10/24 04:26:19;;;;;;;16.30;5.95;;;;;;;12.95;79.79;95304.19;5103912;28;20694;-63
2023/10/24 04:28:46;;;;;;;28.08;10.73;;;;;;;13.06;79.73;95297.88;5104699;28;20581;-62
2023/10/24 04:31:14;;;;;;;62.78;26.13;;;;;;;13.21;79.46;95299.81;5103752;28;20227;-63
2023/10/24 04:33:41;;;;;;;25.27;12.60;;;;;;;13.17;79.36;95298.28;5105061;28;20297;-63
2023/10/24 04:36:10;;;;;;;15.07;8.02;;;;;;;13.23;78.99;95295.50;5103585;28;20206;-63
2023/10/24 04:38:37;;;;;;;12.27;6.57;;;;;;;13.32;79.42;95304.50;5105289;28;20212;-63
2023/10/24 04:41:03;;;;;;;17.80;6.10;;;;;;;13.23;79.89;95309.09;5104741;28;20229;-63
2023/10/24 04:43:30;;;;;;;18.92;6.47;;;;;;;13.16;80.47;95314.47;5104879;28;20205;-63
2023/10/24 04:45:57;;;;;;;22.45;6.18;;;;;;;13.22;80.04;95316.81;5103290;28;20713;-63
2023/10/24 04:48:25;;;;;;;12.57;6.25;;;;;;;13.22;79.78;95314.25;5104988;28;20232;-65
2023/10/24 04:50:52;;;;;;;19.80;6.00;;;;;;;13.25;79.61;95314.13;5103288;28;20327;-63
2023/10/24 04:53:18;;;;;;;27.83;6.97;;;;;;;13.26;80.25;95316.63;5105183;28;20197;-62
2023/10/24 04:55:45;;;;;;;20.75;6.38;;;;;;;13.36;80.16;95316.28;5103149;28;20254;-63
2023/10/24 04:58:13;;;;;;;18.02;6.80;;;;;;;13.46;79.39;95313.25;5104710;28;20192;-62
2023/10/24 05:00:40;;;;;;;25.83;6.57;;;;;;;13.58;78.69;95317.06;5102159;28;20200;-63
2023/10/24 05:03:07;;;;;;;22.52;7.15;;;;;;;13.50;79.18;95335.22;5101268;28;20634;-63
2023/10/24 05:05:36;;;;;;;25.83;7.05;;;;;;;13.34;79.69;95334.19;5104388;28;20646;-64
2023/10/24 05:08:06;;;;;;;32.67;7.45;;;;;;;13.24;79.78;95332.88;5104586;28;20201;-62
2023/10/24 05:10:33;;;;;;;22.42;8.20;;;;;;;13.27;79.89;95332.78;5102977;28;20235;-63
2023/10/24 05:13:00;;;;;;;23.05;8.77;;;;;;;13.20;79.28;95339.00;5103519;28;20215;-62
2023/10/24 05:15:27;;;;;;;30.83;9.20;;;;;;;13.19;79.75;95347.53;5103623;28;20242;-64
2023/10/24 05:17:54;;;;;;;24.52;7.68;;;;;;;13.30;79.29;95347.13;5104240;28;20269;-64
2023/10/24 05:20:21;;;;;;;24.55;7.13;;;;;;;13.34;79.03;95354.63;5102725;28;20233;-64
2023/10/24 05:22:49;;;;;;;24.00;8.57;;;;;;;13.51;78.53;95348.81;5101599;28;20735;-62
2023/10/24 05:25:16;;;;;;;16.48;7.55;;;;;;;13.59;78.37;95345.06;5103707;28;20248;-64
2023/10/24 05:27:43;;;;;;;19.58;7.68;;;;;;;13.96;77.42;95346.91;5103952;28;20232;-63
2023/10/24 05:30:10;;;;;;;20.33;7.63;;;;;;;14.18;75.64;72038.03;5103456;28;20269;-64
2023/10/24 05:32:37;;;;;;;25.58;7.18;;;;;;;14.37;74.28;95346.84;5103122;28;20308;-64
2023/10/24 05:35:04;;;;;;;14.95;6.90;;;;;;;14.72;74.71;95345.34;5103514;28;20670;-64
2023/10/24 05:37:32;;;;;;;25.67;7.70;;;;;;;14.84;72.98;95349.91;5102509;28;20205;-64
2023/10/24 05:40:00;;;;;;;25.10;7.38;;;;;;;15.06;73.13;95359.16;5103994;28;20205;-65
2023/10/24 05:42:26;;;;;;;13.35;7.93;;;;;;;15.18;72.91;95353.44;5103565;28;20209;-65
2023/10/24 05:44:53;;;;;;;25.27;8.15;;;;;;;15.40;72.29;95360.94;5104299;28;20317;-64
2023/10/24 05:47:20;;;;;;;14.32;7.00;;;;;;;15.77;70.84;95360.03;5101664;28;20674;-64
2023/10/24 05:49:47;;;;;;;22.48;7.40;;;;;;;16.07;69.97;95368.78;5103913;28;20219;-64
2023/10/24 05:52:13;;;;;;;17.50;6.47;;;;;;;16.07;69.70;95366.22;5102727;28;20193;-63
2023/10/24 05:54:40;;;;;;;19.40;6.43;;;;;;;16.11;69.25;95360.00;5103973;28;20254;-64
2023/10/24 05:57:08;;;;;;;23.50;8.15;;;;;;;16.36;68.37;95362.16;5102367;28;20747;-63
2023/10/24 05:59:35;;;;;;;23.20;7.53;;;;;;;16.75;68.00;95358.47;5103310;28;20273;-67
2023/10/24 06:02:01;;;;;;;26.42;7.80;;;;;;;17.34;65.79;95357.78;5103736;28;20197;-66
2023/10/24 06:04:28;;;;;;;18.98;7.88;;;;;;;17.70;64.76;95356.69;5103946;28;20201;-63
2023/10/24 06:06:55;;;;;;;23.50;7.70;;;;;;;17.65;64.47;71635.03;5103386;28;20204;-64
2023/10/24 06:09:21;;;;;;;16.20;10.15;;;;;;;17.57;64.56;95359.91;5104529;28;20201;-65
2023/10/24 06:11:48;;;;;;;28.60;8.77;;;;;;;17.58;64.58;95363.28;5101175;28;20288;-63
2023/10/24 06:14:16;;;;;;;20.40;8.35;;;;;;;17.75;64.68;95362.41;5103237;28;20747;-63
2023/10/24 06:16:43;;;;;;;25.15;9.27;;;;;;;18.01;63.85;95359.16;5103596;28;20201;-62
2023/10/24 06:19:09;;;;;;;29.25;9.10;;;;;;;18.42;62.23;95359.28;5103549;28;20205;-64
2023/10/24 06:21:36;;;;;;;19.38;8.05;;;;;;;18.83;61.29;95356.81;5102181;28;20698;-63
2023/10/24 06:24:03;;;;;;;17.80;7.50;;;;;;;19.04;59.83;95349.53;5107206;28;20211;-63
2023/10/24 06:26:30;;;;;;;22.08;8.07;;;;;;;19.11;59.13;95352.53;5107063;28;20648;-64
2023/10/24 06:28:56;;;;;;;24.20;7.25;;;;;;;19.15;58.88;95354.00;5106902;28;20698;-63
2023/10/24 06:31:26;;;;;;;35.28;9.10;;;;;;;19.52;57.57;95352.56;5107522;28;20266;-63
2023/10/24 06:33:53;;;;;;;21.80;6.95;;;;;;;19.80;56.62;95356.72;5107489;28;20211;-62
2023/10/24 06:36:21;;;;;;;22.05;7.35;;;;;;;19.56;56.34;95338.53;5107533;28;20232;-63
2023/10/24 06:38:47;;;;;;;19.75;7.07;;;;;;;19.37;57.11;95346.56;5106808;28;20197;-63
2023/10/24 06:41:14;;;;;;;14.05;7.30;;;;;;;19.21;58.06;95356.22;5106489;28;20626;-63
2023/10/24 06:43:41;;;;;;;19.25;6.07;;;;;;;19.06;58.44;95349.41;5103070;28;20785;-63
2023/10/24 06:46:07;;;;;;;22.55;6.65;;;;;;;19.10;58.33;95348.31;5105850;28;20311;-64
2023/10/24 06:48:35;;;;;;;15.82;6.40;;;;;;;19.31;57.81;95350.34;5105112;28;20225;-63
2023/10/24 06:51:02;;;;;;;22.38;7.93;;;;;;;19.58;57.09;95352.97;5105059;28;20197;-64
2023/10/24 06:53:29;;;;;;;21.00;7.45;;;;;;;19.57;56.82;95347.91;5104425;28;20201;-64
2023/10/24 06:56:00;;;;;;;22.48;6.95;;;;;;;19.41;57.39;95350.63;5105450;28;20552;-65
2023/10/24 06:58:26;;;;;;;20.33;6.90;;;;;;;19.20;57.76;95341.66;5104715;28;21514;-63
2023/10/24 07:00:53;;;;;;;22.10;8.15;;;;;;;18.93;59.05;95342.47;5105500;28;20642;-64
2023/10/24 07:03:20;;;;;;;21.80;8.23;;;;;;;18.68;59.47;95344.88;5105606;28;20598;-63
2023/10/24 07:05:52;;;;;;;21.27;8.52;;;;;;;18.83;59.40;95349.09;5104930;28;20656;-65
2023/10/24 07:08:19;;;;;;;43.50;15.32;;;;;;;19.10;59.35;95343.16;5107687;28;20193;-65
2023/10/24 07:10:45;;;;;;;37.70;14.45;;;;;;;19.45;57.40;95336.63;5106804;27;20283;-63
2023/10/24 07:13:12;;;;;;;30.42;10.65;;;;;;;19.58;57.05;95332.34;5106058;28;20237;-64
2023/10/24 07:15:39;;;;;;;23.02;9.05;;;;;;;19.67;56.99;95336.91;5105052;28;20731;-63
2023/10/24 07:18:06;;;;;;;37.97;13.57;;;;;;;19.80;57.12;95328.38;5105343;28;20205;-64
2023/10/24 07:20:35;;;;;;;38.97;12.95;;;;;;;20.13;56.15;95335.63;5105453;28;20208;-64
2023/10/24 07:23:03;;;;;;;26.30;12.77;;;;;;;20.37;54.78;95324.53;5105270;28;20303;-64
2023/10/24 07:25:30;;;;;;;37.85;12.00;;;;;;;20.53;54.62;95320.91;5103928;28;20284;-64
2023/10/24 07:27:57;;;;;;;30.80;12.25;;;;;;;20.48;54.12;95318.63;5105547;28;20332;-64
2023/10/24 07:30:24;;;;;;;52.22;15.05;;;;;;;20.42;54.93;95313.88;5104481;28;20205;-64
2023/10/24 07:32:53;;;;;;;30.63;11.02;;;;;;;20.54;54.12;95312.25;5105533;28;20197;-64
2023/10/24 07:35:21;;;;;;;24.70;9.60;;;;;;;21.02;53.51;95313.97;5105581;28;20193;-64
2023/10/24 07:37:48;;;;;;;36.95;11.02;;;;;;;21.20;52.50;95316.19;5104938;28;20203;-63
2023/10/24 07:40:16;;;;;;;28.58;10.13;;;;;;;21.84;51.34;95308.94;5105752;28;20201;-63
2023/10/24 07:42:43;;;;;;;33.58;11.27;;;;;;;22.33;49.09;95319.91;5105760;28;20204;-64
2023/10/24 07:45:11;;;;;;;40.45;11.35;;;;;;;22.55;49.16;95307.91;5105275;28;20268;-63
2023/10/24 07:47:38;;;;;;;29.85;10.35;;;;;;;22.62;48.84;95298.72;5102496;27;20283;-63
2023/10/24 07:50:05;;;;;;;33.63;9.82;;;;;;;22.67;100.00;95296.59;5103683;27;20229;-64
2023/10/24 07:52:32;;;;;;;31.45;10.90;;;;;;;22.21;49.59;95297.53;5104687;28;20233;-63
2023/10/24 07:54:59;;;;;;;33.72;11.13;;;;;;;21.89;49.82;95293.91;5105595;28;20666;-63
2023/10/24 07:57:26;;;;;;;23.42;10.05;;;;;;;21.62;51.36;95291.59;5106017;28;20205;-63
2023/10/24 07:59:53;;;;;;;27.52;10.65;;;;;;;21.51;51.89;95287.22;5103633;28;20232;-63
2023/10/24 08:02:20;;;;;;;33.72;10.90;;;;;;;21.65;51.25;95293.97;5103406;28;20232;-64
2023/10/24 08:04:47;;;;;;;25.67;9.60;;;;;;;21.85;51.03;95295.06;5105580;28;20209;-63
2023/10/24 08:07:13;;;;;;;36.88;10.25;;;;;;;21.86;50.70;95302.72;5102870;28;20193;-63
2023/10/24 08:09:40;;;;;;;39.13;9.70;;;;;;;22.06;50.51;95296.09;5105594;28;20201;-62
2023/10/24 08:12:08;;;;;;;19.52;9.20;;;;;;;22.55;49.44;95293.19;5105416;28;20197;-63
2023/10/24 08:14:36;;;;;;;18.42;9.88;;;;;;;23.27;47.75;95290.13;5105563;28;20682;-64
2023/10/24 08:17:03;;;;;;;34.92;9.43;;;;;;;24.00;45.38;95286.81;5105246;28;20686;-63
2023/10/24 08:19:29;;;;;;;24.55;7.88;;;;;;;24.86;43.77;95288.16;5105833;28;20197;-62
2023/10/24 08:21:55;;;;;;;20.88;8.65;;;;;;;25.47;42.01;95282.81;5105126;28;20288;-63
2023/10/24 08:24:23;;;;;;;27.80;8.25;;;;;;;25.82;40.49;95269.25;5103417;28;20204;-62
2023/10/24 08:26:49;;;;;;;27.60;8.13;;;;;;;25.86;39.61;95271.44;5105105;28;20221;-62
2023/10/24 08:29:16;;;;;;;29.42;8.55;;;;;;;25.65;40.80;95263.81;5102930;28;20277;-64
2023/10/24 08:31:44;;;;;;;27.63;8.77;;;;;;;25.59;40.78;95277.34;5103858;28;20282;-65
2023/10/24 08:34:12;;;;;;;20.48;8.55;;;;;;;25.79;40.33;95257.34;5103387;28;20204;-63
2023/10/24 08:36:38;;;;;;;29.17;7.90;;;;;;;25.90;40.10;95261.59;5105355;28;20297;-63
2023/10/24 08:39:05;;;;;;;28.05;8.10;;;;;;;25.73;40.40;95256.13;5103989;28;20631;-64
2023/10/24 08:41:32;;;;;;;21.15;8.85;;;;;;;25.67;40.65;95248.88;5102979;28;20813;-65
2023/10/24 08:43:59;;;;;;;26.58;8.60;;;;;;;25.60;41.03;95250.34;5102334;28;20224;-63
2023/10/24 08:46:26;;;;;;;22.73;8.70;;;;;;;25.47;41.31;95247.22;5103450;28;20278;-64
2023/10/24 08:48:55;;;;;;;37.65;9.35;;;;;;;25.38;41.88;95248.03;5101611;28;20250;-61
2023/10/24 08:51:21;;;;;;;27.65;8.73;;;;;;;25.32;41.64;95245.97;5103626;28;20286;-62
2023/10/24 08:53:48;;;;;;;35.08;9.68;;;;;;;24.76;41.95;95239.56;5103208;28;20644;-63
2023/10/24 08:56:15;;;;;;;31.35;9.23;;;;;;;24.15;43.01;95246.56;5103339;28;20628;-64
2023/10/24 08:58:45;;;;;;;34.45;10.00;;;;;;;23.55;44.72;95242.91;5102701;28;20272;-64
2023/10/24 09:01:13;;;;;;;29.77;9.63;;;;;;;23.27;45.91;95243.47;5102551;28;20197;-65
2023/10/24 09:03:41;;;;;;;33.90;10.23;;;;;;;23.05;46.16;95240.00;5103499;28;20209;-64
2023/10/24 09:06:09;;;;;;;25.33;8.73;;;;;;;22.84;46.76;95233.94;5105224;28;20248;-63
2023/10/24 09:08:36;;;;;;;21.40;8.85;;;;;;;22.81;47.07;95226.41;5104853;28;20201;-62
2023/10/24 09:11:03;;;;;;;27.63;10.27;;;;;;;22.65;46.97;95225.94;5103064;28;20775;-62
2023/10/24 09:13:30;;;;;;;23.38;11.43;;;;;;;22.50;47.38;95216.81;5103146;28;20262;-62
2023/10/24 09:16:06;;;;;;;21.95;11.43;;;;;;;22.59;47.79;95213.47;5103959;28;20193;-64
2023/10/24 09:18:35;;;;;;;30.85;10.15;;;;;;;22.80;47.72;95214.41;5103023;28;20233;-64
2023/10/24 09:21:02;;;;;;;24.13;8.68;;;;;;;22.78;47.46;95210.28;5104318;28;20201;-65
2023/10/24 09:23:32;;;;;;;26.15;9.85;;;;;;;22.74;47.23;95204.50;5103389;28;20584;-63
2023/10/24 09:26:02;;;;;;;24.17;8.65;;;;;;;22.63;46.78;95207.13;5103175;28;20253;-64
2023/10/24 09:28:29;;;;;;;23.92;9.65;;;;;;;22.63;47.28;95212.28;5103117;28;20197;-63
2023/10/24 09:30:57;;;;;;;21.58;8.77;;;;;;;22.96;47.14;95216.59;5104497;28;20221;-64
2023/10/24 09:33:25;;;;;;;22.08;8.55;;;;;;;23.44;46.39;95206.63;5103690;28;20296;-63
2023/10/24 09:35:52;;;;;;;43.17;8.90;;;;;;;23.85;44.89;95211.00;5101979;28;20658;-63
2023/10/24 09:38:21;;;;;;;25.05;8.63;;;;;;;24.24;43.94;95183.50;5103890;28;20448;-63
2023/10/24 09:40:49;;;;;;;22.30;8.02;;;;;;;24.48;43.72;95183.16;5104270;28;20666;-63
2023/10/24 09:43:20;;;;;;;25.90;7.68;;;;;;;24.78;42.91;95203.03;5103041;28;20217;-64
2023/10/24 09:45:48;;;;;;;19.92;8.00;;;;;;;24.93;42.59;95201.72;5104359;28;20652;-63
2023/10/24 09:48:17;;;;;;;24.77;7.45;;;;;;;25.07;42.15;95187.50;5104227;28;20641;-63
2023/10/24 09:50:43;;;;;;;22.70;7.22;;;;;;;25.23;41.83;95193.00;5102180;28;20287;-63
2023/10/24 09:53:12;;;;;;;18.30;5.93;;;;;;;25.30;40.92;95193.25;5102473;28;20237;-62
2023/10/24 09:55:40;;;;;;;19.45;6.80;;;;;;;24.94;40.78;95187.75;5104058;28;20229;-62
2023/10/24 09:58:09;;;;;;;26.85;6.75;;;;;;;24.49;42.65;95191.78;5107633;28;20193;-63
2023/10/24 10:00:36;;;;;;;25.13;6.68;;;;;;;24.23;43.32;95181.81;5107884;28;20666;-63
2023/10/24 10:03:04;;;;;;;33.47;7.55;;;;;;;24.02;44.11;95178.44;5105643;28;20258;-63
2023/10/24 10:05:32;;;;;;;29.08;8.02;;;;;;;23.85;44.14;95177.28;5107889;28;20686;-63
2023/10/24 10:08:02;;;;;;;25.63;7.68;;;;;;;23.64;44.76;95172.09;5107090;28;20201;-64
2023/10/24 10:10:29;;;;;;;27.35;9.20;;;;;;;23.63;45.37;95178.25;5107404;28;20204;-63
2023/10/24 10:13:00;;;;;;;26.65;6.90;;;;;;;23.80;45.45;95163.03;5104552;28;20234;-64
2023/10/24 10:15:58;;;;;;;22.05;7.38;;;;;;;24.11;44.83;95164.69;5108018;28;20201;-63
2023/10/24 10:18:46;;;;;;;24.50;7.90;;;;;;;24.23;44.31;95166.25;5107238;28;20211;-63
2023/10/24 10:21:23;;;;;;;26.13;7.63;;;;;;;24.39;44.26;95161.38;5107103;28;20267;-64
2023/10/24 10:24:26;;;;;;;22.85;7.35;;;;;;;24.58;43.82;95154.59;5107475;28;20618;-64
2023/10/24 10:27:04;;;;;;;21.17;8.80;;;;;;;24.61;43.67;95154.31;5103336;28;20217;-64
2023/10/24 10:29:44;;;;;;;21.23;8.00;;;;;;;24.71;43.09;95153.38;5106819;28;20233;-63
2023/10/24 10:32:26;;;;;;;23.05;6.70;;;;;;;24.85;42.55;95146.97;5106168;28;20958;-63
2023/10/24 10:34:55;;;;;;;26.38;7.70;;;;;;;24.74;42.44;95134.94;5106572;28;20201;-64
2023/10/24 10:37:21;;;;;;;20.50;7.22;;;;;;;24.76;42.70;95134.78;5105950;28;20647;-63
2023/10/24 10:40:27;;;;;;;23.75;8.70;;;;;;;24.59;42.68;95127.66;5108110;28;20197;-62
2023/10/24 10:42:54;;;;;;;28.23;9.90;;;;;;;24.45;43.03;95117.66;5102156;28;20197;-63
2023/10/24 10:45:25;;;;;;;27.80;9.20;;;;;;;24.58;43.28;95118.22;5105441;28;20786;-63
2023/10/24 10:47:53;;;;;;;31.73;9.75;;;;;;;24.54;42.86;95111.63;5104126;28;20273;-63
2023/10/24 10:50:24;;;;;;;28.50;9.75;;;;;;;24.28;43.17;95106.13;5105018;28;20273;-63
2023/10/24 10:53:03;;;;;;;25.23;9.60;;;;;;;24.02;44.07;95101.38;5105557;28;20586;-63
2023/10/24 10:56:12;;;;;;;40.53;9.30;;;;;;;24.00;44.49;95097.28;5103567;28;20300;-63
2023/10/24 10:59:01;;;;;;;27.38;8.57;;;;;;;24.03;44.29;95086.63;5104815;28;20675;-63
2023/10/24 11:01:34;;;;;;;28.60;8.30;;;;;;;23.60;44.47;95079.09;5091649;28;20197;-63
2023/10/24 11:04:02;;;;;;;28.27;7.75;;;;;;;23.73;44.65;95080.53;5105171;28;20194;-64
2023/10/24 11:06:29;;;;;;;20.80;7.95;;;;;;;23.54;45.08;95074.41;5104539;28;20224;-64
2023/10/24 11:09:09;;;;;;;24.42;7.75;;;;;;;23.55;44.83;95082.06;5104587;28;20846;-63
2023/10/24 11:11:38;;;;;;;25.98;7.93;;;;;;;23.73;44.85;95075.34;5105413;28;20200;-63
2023/10/24 11:14:14;;;;;;;19.23;6.75;;;;;;;24.04;44.10;95057.94;5106333;28;20221;-64
2023/10/24 11:16:42;;;;;;;36.83;8.30;;;;;;;24.08;43.77;95046.31;5106383;28;20235;-62
2023/10/24 11:19:17;;;;;;;23.63;7.55;;;;;;;24.16;43.86;95056.06;5106589;28;20678;-62
2023/10/24 11:21:45;;;;;;;21.60;7.72;;;;;;;24.10;43.77;95046.19;5104583;28;20292;-67
2023/10/24 11:24:11;;;;;;;28.83;7.95;;;;;;;24.19;44.45;95042.81;5104866;28;20205;-62
2023/10/24 11:26:38;;;;;;;25.52;7.93;;;;;;;24.31;43.26;95044.34;5105190;28;20220;-64
2023/10/24 11:29:06;;;;;;;18.05;7.47;;;;;;;24.10;43.56;95051.38;5106740;28;20201;-64